Bruno Nogueira

Recruteur - Bahia
4 Déc 2028
Lundi
Processus

Personnalité

Adaptabilité (2) Ambition (4) Controverse (6) Loyauté (5) Pression (2) Professionnalisme (7) Sportivité (18) Tempérament (6)

Profil

Style d'entraînement Démocratique
Diplôme Continental Pro
Détermination 11
Gestion des joueurs 6
Motivation 13
Discipline 7
Satisfaction professionnelle
100%
Fatigue
0%
Rôle Recruteur
Salaire 86.1K p/s
Contrat 14.03.2029

Performance

Comportement Bon
Efficacité de l'entraînement
51%
Développement des joueurs
70%
Prévention des blessures
45%
Mise en place tactique
70%

Événements récents

A évalué un joueur maintenant
A participé à une réunion de recrutement maintenant
A recommandé une cible de transfert maintenant
A recommandé une cible de transfert maintenant
A recommandé une cible de transfert maintenant
A recommandé une cible de transfert maintenant
A recommandé une cible de transfert 7j
A évalué un joueur 7j

Suivi en cours

111
Joueur Club Statut Capacité Confiance Observé Dernière observation Dernier vote
Kauã Criciuma Actif 117 / 118 40% 2 29.11.2028 -
James Trafford Leeds United Actif 154 / 163 40% 2 29.11.2028 -
Isaac Boehmer Vancouver Whitecaps Actif 126 / 110 40% 2 29.11.2028 -
Gideon Manaseh Ikorodu City Actif 89 / 99 40% 3 27.11.2028 -
Noah Markmann Esbjerg Actif 126 / 118 40% 2 27.11.2028 -
Denilson Santos Sporting CP Actif 104 / 110 40% 1 27.11.2028 -
Luciano Jachfe Nueva Chicago Actif 124 / 128 40% 5 22.11.2028 -
Facundo Sanguinetti Banfield Actif 127 / 130 40% 2 22.11.2028 -
Lucas Cuevas Rosario Central Actif 126 / 126 40% 2 22.11.2028 -
Christos Mouzakitis Hull City Actif 140 / 156 40% 6 20.11.2028 -
Seydou Fofana Pacos de Ferreira Actif 104 / 110 40% 2 20.11.2028 -
José Neto Benfica Actif 117 / 127 40% 2 20.11.2028 -
Lautaro Herrera Estudiantes Actif 103 / 114 40% 3 20.11.2028 -
Diego Callai Sporting CP Actif 125 / 136 40% 2 20.11.2028 -
Juan Pablo Insúa Barracas Central Actif 111 / 112 40% 2 20.11.2028 -
Bruno Antúnez Boston River Actif 113 / 114 40% 2 18.11.2028 -
Matheus Cunha Cruzeiro Actif 131 / 130 40% 1 18.11.2028 -
Veljko Milosavljević Bournemouth Actif 150 / 160 40% 2 17.11.2028 -
Tyler Fletcher Rotherham United Actif 110 / 116 40% 1 17.11.2028 -
Mateo Caballero Defensor Sporting Actif 107 / 104 40% 1 17.11.2028 -
João Capucho Benfica Actif 119 / 109 40% 1 16.11.2028 -
Snyder Brunell Seattle Sounders Actif 104 / 95 40% 1 16.11.2028 -
Riquelme Thompson-Jones Accrington Stanley Actif 121 / 119 40% 1 16.11.2028 -
Kostantis Tzolakis Brighton Actif 166 / 161 40% 1 15.11.2028 -
Antonio Carrera Falkenberg Actif 117 / 112 40% 1 15.11.2028 -
Francisco Salerno Defensores Unidos Actif 110 / 109 40% 3 13.11.2028 -
Facundo Vila Estudiantes Actif 109 / 115 40% 3 13.11.2028 -
Biola Sabitu Remo Stars Actif 102 / 119 40% 2 13.11.2028 -
Joaquín Blázquez Talleres Actif 127 / 131 40% 3 12.11.2028 -
Alejandro Rodríguez Melgar Actif 124 / 132 40% 3 12.11.2028 -
Alejo Medina Agropecuario Argentino Actif 107 / 110 40% 1 12.11.2028 -
Trey Nyoni Rotherham United Actif 148 / 152 40% 5 11.11.2028 -
Honest Ahanor Atalanta Actif 135 / 156 40% 3 11.11.2028 -
Noa Mikić Imotski Actif 119 / 117 40% 1 11.11.2028 -
Jasper Torkildsen IK Start Actif 110 / 113 40% 1 10.11.2028 -
Josh Keeley Luton Town Actif 139 / 140 40% 1 10.11.2028 -
Frankarlos Benítez Caracas Actif 116 / 120 40% 3 09.11.2028 -
Fabrizio Correa Juventud Actif 130 / 131 40% 1 09.11.2028 -
Lautaro Maldonado Instituto Actif 115 / 123 40% 2 04.11.2028 -
Carl Rushworth Aston Villa Actif 160 / 159 40% 2 04.11.2028 -
Ángel Maciel Tacuarembo Actif 113 / 116 40% 1 31.10.2028 -
John Amah Plateau United Actif 106 / 115 40% 2 30.10.2028 -
Federico Losas Chacarita Juniors Actif 125 / 123 40% 3 27.10.2028 -
Kevin Chacón Alianza Petrolera Actif 112 / 113 40% 1 27.10.2028 -
Leandro Brey Boca Juniors Actif 146 / 135 40% 4 26.10.2028 -
Daniel Banjaqui Benfica Actif 132 / 139 40% 9 25.10.2028 -
Máximo Munarriz San Telmo Actif 100 / 106 40% 2 25.10.2028 -
Rafael Mota Sporting CP Actif 111 / 125 40% 1 23.10.2028 -
Ignacio Suárez Cerro Actif 113 / 119 40% 2 22.10.2028 -
Martim Cunha Porto Actif 106 / 116 40% 4 21.10.2028 -
Joel Ezra Enyimba Actif 96 / 111 40% 2 21.10.2028 -
Vincent Edafe Warri Wolves Actif 109 / 111 40% 2 21.10.2028 -
José Arbío River Plate Actif 101 / 112 40% 1 21.10.2028 -
Ali Ishaku Abia Warriors Actif 100 / 108 40% 1 20.10.2028 -
Pablo Lúcio St. Gallen Actif 117 / 119 40% 3 17.10.2028 -
Vladimir Nazarov Pakhtakor Actif 129 / 115 40% 1 16.10.2028 -
Juan Pablo Rial San Telmo Actif 112 / 113 40% 2 11.10.2028 -
Abduvohid Ne'matov Nasaf Actif 137 / 131 40% 1 08.10.2028 -
Ani Ozoemena Rivers United Actif 108 / 105 40% 1 05.10.2028 -
Álvaro Busso Vélez Actif 110 / 114 40% 1 04.10.2028 -
Bernardo Lima Porto Actif 115 / 125 40% 4 03.10.2028 -
Luka Vušković Tottenham Actif 148 / 149 40% 2 03.10.2028 -
Celías Ingenthron Platense Actif 118 / 127 40% 1 03.10.2028 -
Giovanni Leoni Lincoln City Actif 154 / 151 40% 3 25.09.2028 -
Ayyoub Bouaddi Stoke City Actif 159 / 165 40% 2 22.09.2028 -
Matías Magdaleno Estudiantes Actif 115 / 114 40% 1 22.09.2028 -
Miguel Figueiredo Benfica Perdu 132 / 125 40% 4 18.09.2028 -
Louis Page Leicester City Actif 133 / 142 40% 1 18.09.2028 -
Lautaro Dufur Juventud Actif 107 / 111 40% 1 17.09.2028 -
Myles Lewis-Skelly Arsenal Actif 160 / 168 40% 1 17.09.2028 -
Ayden Heaven Portsmouth Actif 159 / 161 40% 2 15.09.2028 -
Rui Silva Benfica Actif 106 / 116 40% 1 10.09.2028 -
Salvador Blopá Wolverhampton Négociation 124 / 132 40% 1 10.09.2028 -
Kiani Inge Groningen Actif 108 / 125 40% 1 08.08.2028 -
Kamaldeen Atiemo Wa All Stars Actif 111 / 112 40% 1 08.08.2028 -
Kauã Moraes Flamengo Actif 132 / 137 40% 2 07.08.2028 -
Fábio Matheus São Paulo Actif 115 / 120 76% 1 17.07.2028 Approuver
Ryan Corinthians Négociation 117 / 124 76% 1 02.06.2028 Approuver
Matteo Ruggeri Middlesbrough Actif 162 / 162 40% 1 31.05.2028 -
Eric Ramires Bragantino Actif 131 / 126 76% 1 27.12.2027 Approuver
Adam Wharton Crystal Palace Actif 157 / 166 40% 1 13.12.2027 -
Josh Acheampong Everton Actif 148 / 147 40% 4 29.11.2027 -
Colin Guske Orlando City Actif 85 / 107 40% 3 25.11.2027 -
Edvard Pettersen Sandefjord Actif 103 / 115 40% 2 20.11.2027 -
Nahuel Leivas Montevideo City Torque Actif 101 / 111 40% 1 18.11.2027 -
Olaniyi Saheed Kwara United Actif 86 / 96 40% 5 16.11.2027 -
Adrian Skogmar Malmo FF Actif 122 / 114 40% 4 16.11.2027 -
Esquerdinha Notts County Actif 128 / 135 40% 1 14.11.2027 -
Jon Esenga IF Elfsborg Actif 90 / 93 40% 1 14.11.2027 -
Souza Tottenham Actif 133 / 141 40% 2 29.10.2027 -
Matias Siltanen Malmo FF Actif 120 / 133 40% 3 23.10.2027 -
Agustín Obregón River Plate Actif 109 / 120 40% 1 19.10.2027 -
Esteban de Lima Tacuarembo Actif 98 / 96 40% 2 18.10.2027 -
Josh Nichols Oldham Athletic Actif 109 / 134 40% 1 18.10.2027 -
Oscar Steinke Brånby Hammarby Actif 112 / 98 40% 1 16.10.2027 -
Lucas Bergvall Tottenham Actif 143 / 150 40% 3 13.10.2027 -
Tiago Freitas Benfica Actif 108 / 124 40% 4 13.10.2027 -
Juan Manuel Villalba Tigre Actif 120 / 127 40% 1 10.10.2027 -
Mohamed Moussa Koïta Mathare United Actif 86 / 109 40% 1 10.10.2027 -
Victor Hernandez Santa Fe Actif 120 / 124 40% 1 26.09.2027 -
Alejandro Leiva Patronato Actif 91 / 106 40% 1 23.09.2027 -
Jonny Shore New York City Actif 93 / 113 40% 1 20.09.2027 -
José Cavadia Aguilas Doradas Actif 103 / 118 40% 1 13.09.2027 -
Santiago Colidio Liepaja Actif 94 / 100 40% 1 08.09.2027 -
Mbekezeli Mbokazi Chicago Fire Actif 132 / 139 40% 1 08.09.2027 -
Facundo Balatti Penarol Actif 98 / 111 40% 1 04.09.2027 -
Drew Baiera New York City Actif 96 / 109 40% 1 31.08.2027 -
Andrea Bertoncini Triestina Actif 99 / 108 40% 2 14.08.2027 -
Romuald Sawadogo Hapoel Raanana Actif 94 / 106 40% 1 14.08.2027 -
Eliás Montiel Borussia Dortmund Actif 132 / 134 40% 1 12.08.2027 -
Andrey Santa Cruz Actif 113 / 114 72% 1 12.07.2027 Approuver